<?xml version="1.0" encoding="UTF-8" standalone="no" ?>
<gpx xmlns="http://www.topografix.com/GPX/1/1" xmlns:xsi="http://www.w3.org/2001/XMLSchema-instance" xsi:schemaLocation="http://www.topografix.com/GPX/1/1 http://www.topografix.com/GPX/1/1/gpx.xsd" version="1.1" creator="VisuGPX - https://www.visugpx.com">
  <metadata>
    <name>Marche Adeps 10 KMs Genappe. 02 fév 2014.</name>
    <desc><![CDATA[Marche Adeps 10 KMs Genappe. 02 fév 2014.]]></desc>
  </metadata>
  <trk>
    <name><![CDATA[Sequence 1]]></name>
    <trkseg>
      <trkpt lat="50.61228" lon="4.45117">
        <ele>111</ele>
        <time>2014-02-02T10:10:43Z</time>
      </trkpt>
      <trkpt lat="50.61239" lon="4.45118">
        <ele>111</ele>
        <time>2014-02-02T10:10:54Z</time>
      </trkpt>
      <trkpt lat="50.61248" lon="4.4511">
        <ele>110</ele>
        <time>2014-02-02T10:11:05Z</time>
      </trkpt>
      <trkpt lat="50.61262" lon="4.4511">
        <ele>111</ele>
        <time>2014-02-02T10:11:20Z</time>
      </trkpt>
      <trkpt lat="50.61263" lon="4.45101">
        <ele>111</ele>
        <time>2014-02-02T10:11:27Z</time>
      </trkpt>
      <trkpt lat="50.61262" lon="4.45072">
        <ele>110</ele>
        <time>2014-02-02T10:11:48Z</time>
      </trkpt>
      <trkpt lat="50.61262" lon="4.45071">
        <ele>110</ele>
        <time>2014-02-02T10:11:49Z</time>
      </trkpt>
      <trkpt lat="50.61267" lon="4.45053">
        <ele>111</ele>
        <time>2014-02-02T10:12:06Z</time>
      </trkpt>
      <trkpt lat="50.61267" lon="4.45048">
        <ele>111</ele>
        <time>2014-02-02T10:12:11Z</time>
      </trkpt>
      <trkpt lat="50.6127" lon="4.45012">
        <ele>110</ele>
        <time>2014-02-02T10:12:32Z</time>
      </trkpt>
      <trkpt lat="50.6127" lon="4.4501">
        <ele>110</ele>
        <time>2014-02-02T10:12:33Z</time>
      </trkpt>
      <trkpt lat="50.61264" lon="4.44991">
        <ele>110</ele>
        <time>2014-02-02T10:12:44Z</time>
      </trkpt>
      <trkpt lat="50.61258" lon="4.44972">
        <ele>110</ele>
        <time>2014-02-02T10:12:55Z</time>
      </trkpt>
      <trkpt lat="50.61254" lon="4.4495">
        <ele>109</ele>
        <time>2014-02-02T10:13:06Z</time>
      </trkpt>
      <trkpt lat="50.61254" lon="4.44934">
        <ele>109</ele>
        <time>2014-02-02T10:13:17Z</time>
      </trkpt>
      <trkpt lat="50.61251" lon="4.44915">
        <ele>108</ele>
        <time>2014-02-02T10:13:28Z</time>
      </trkpt>
      <trkpt lat="50.61251" lon="4.44891">
        <ele>109</ele>
        <time>2014-02-02T10:13:39Z</time>
      </trkpt>
      <trkpt lat="50.61249" lon="4.44842">
        <ele>108</ele>
        <time>2014-02-02T10:13:59Z</time>
      </trkpt>
      <trkpt lat="50.61248" lon="4.44838">
        <ele>108</ele>
        <time>2014-02-02T10:14:01Z</time>
      </trkpt>
      <trkpt lat="50.61247" lon="4.44784">
        <ele>109</ele>
        <time>2014-02-02T10:14:22Z</time>
      </trkpt>
      <trkpt lat="50.61243" lon="4.44763">
        <ele>109</ele>
        <time>2014-02-02T10:14:30Z</time>
      </trkpt>
      <trkpt lat="50.61241" lon="4.44752">
        <ele>110</ele>
        <time>2014-02-02T10:14:34Z</time>
      </trkpt>
      <trkpt lat="50.6124" lon="4.44723">
        <ele>110</ele>
        <time>2014-02-02T10:14:45Z</time>
      </trkpt>
      <trkpt lat="50.61248" lon="4.44689">
        <ele>111</ele>
        <time>2014-02-02T10:14:59Z</time>
      </trkpt>
      <trkpt lat="50.61255" lon="4.44661">
        <ele>111</ele>
        <time>2014-02-02T10:15:14Z</time>
      </trkpt>
      <trkpt lat="50.61258" lon="4.44656">
        <ele>112</ele>
        <time>2014-02-02T10:15:18Z</time>
      </trkpt>
      <trkpt lat="50.61264" lon="4.44636">
        <ele>112</ele>
        <time>2014-02-02T10:15:29Z</time>
      </trkpt>
      <trkpt lat="50.61275" lon="4.44602">
        <ele>112</ele>
        <time>2014-02-02T10:15:47Z</time>
      </trkpt>
      <trkpt lat="50.61277" lon="4.44593">
        <ele>112</ele>
        <time>2014-02-02T10:15:52Z</time>
      </trkpt>
      <trkpt lat="50.61283" lon="4.44572">
        <ele>113</ele>
        <time>2014-02-02T10:16:02Z</time>
      </trkpt>
      <trkpt lat="50.61295" lon="4.44523">
        <ele>113</ele>
        <time>2014-02-02T10:16:23Z</time>
      </trkpt>
      <trkpt lat="50.61296" lon="4.44521">
        <ele>113</ele>
        <time>2014-02-02T10:16:24Z</time>
      </trkpt>
      <trkpt lat="50.61301" lon="4.44501">
        <ele>113</ele>
        <time>2014-02-02T10:16:36Z</time>
      </trkpt>
      <trkpt lat="50.61303" lon="4.44483">
        <ele>114</ele>
        <time>2014-02-02T10:16:46Z</time>
      </trkpt>
      <trkpt lat="50.61309" lon="4.44461">
        <ele>114</ele>
        <time>2014-02-02T10:16:57Z</time>
      </trkpt>
      <trkpt lat="50.61314" lon="4.44438">
        <ele>114</ele>
        <time>2014-02-02T10:17:08Z</time>
      </trkpt>
      <trkpt lat="50.61319" lon="4.44414">
        <ele>115</ele>
        <time>2014-02-02T10:17:20Z</time>
      </trkpt>
      <trkpt lat="50.61322" lon="4.44394">
        <ele>115</ele>
        <time>2014-02-02T10:17:30Z</time>
      </trkpt>
      <trkpt lat="50.61324" lon="4.44373">
        <ele>115</ele>
        <time>2014-02-02T10:17:41Z</time>
      </trkpt>
      <trkpt lat="50.61327" lon="4.44351">
        <ele>115</ele>
        <time>2014-02-02T10:17:52Z</time>
      </trkpt>
      <trkpt lat="50.61329" lon="4.44328">
        <ele>116</ele>
        <time>2014-02-02T10:18:03Z</time>
      </trkpt>
      <trkpt lat="50.61331" lon="4.44305">
        <ele>116</ele>
        <time>2014-02-02T10:18:14Z</time>
      </trkpt>
      <trkpt lat="50.61333" lon="4.44284">
        <ele>116</ele>
        <time>2014-02-02T10:18:25Z</time>
      </trkpt>
      <trkpt lat="50.61337" lon="4.44233">
        <ele>117</ele>
        <time>2014-02-02T10:18:46Z</time>
      </trkpt>
      <trkpt lat="50.61338" lon="4.44227">
        <ele>118</ele>
        <time>2014-02-02T10:18:49Z</time>
      </trkpt>
      <trkpt lat="50.61341" lon="4.44206">
        <ele>118</ele>
        <time>2014-02-02T10:18:58Z</time>
      </trkpt>
      <trkpt lat="50.61347" lon="4.44167">
        <ele>118</ele>
        <time>2014-02-02T10:19:17Z</time>
      </trkpt>
      <trkpt lat="50.61347" lon="4.44161">
        <ele>118</ele>
        <time>2014-02-02T10:19:20Z</time>
      </trkpt>
      <trkpt lat="50.61349" lon="4.4414">
        <ele>119</ele>
        <time>2014-02-02T10:19:31Z</time>
      </trkpt>
      <trkpt lat="50.6135" lon="4.44122">
        <ele>119</ele>
        <time>2014-02-02T10:19:42Z</time>
      </trkpt>
      <trkpt lat="50.61355" lon="4.44094">
        <ele>119</ele>
        <time>2014-02-02T10:19:53Z</time>
      </trkpt>
      <trkpt lat="50.61362" lon="4.44054">
        <ele>119</ele>
        <time>2014-02-02T10:20:12Z</time>
      </trkpt>
      <trkpt lat="50.61369" lon="4.44025">
        <ele>119</ele>
        <time>2014-02-02T10:20:24Z</time>
      </trkpt>
      <trkpt lat="50.6137" lon="4.44021">
        <ele>119</ele>
        <time>2014-02-02T10:20:26Z</time>
      </trkpt>
      <trkpt lat="50.61376" lon="4.44">
        <ele>119</ele>
        <time>2014-02-02T10:20:37Z</time>
      </trkpt>
      <trkpt lat="50.61382" lon="4.43977">
        <ele>119</ele>
        <time>2014-02-02T10:20:48Z</time>
      </trkpt>
      <trkpt lat="50.61387" lon="4.43955">
        <ele>120</ele>
        <time>2014-02-02T10:21:00Z</time>
      </trkpt>
      <trkpt lat="50.6139" lon="4.43934">
        <ele>120</ele>
        <time>2014-02-02T10:21:10Z</time>
      </trkpt>
      <trkpt lat="50.61394" lon="4.43909">
        <ele>121</ele>
        <time>2014-02-02T10:21:21Z</time>
      </trkpt>
      <trkpt lat="50.61397" lon="4.43889">
        <ele>121</ele>
        <time>2014-02-02T10:21:32Z</time>
      </trkpt>
      <trkpt lat="50.61401" lon="4.43866">
        <ele>121</ele>
        <time>2014-02-02T10:21:43Z</time>
      </trkpt>
      <trkpt lat="50.61404" lon="4.43843">
        <ele>121</ele>
        <time>2014-02-02T10:21:54Z</time>
      </trkpt>
      <trkpt lat="50.61405" lon="4.4382">
        <ele>122</ele>
        <time>2014-02-02T10:22:05Z</time>
      </trkpt>
      <trkpt lat="50.61404" lon="4.43798">
        <ele>123</ele>
        <time>2014-02-02T10:22:16Z</time>
      </trkpt>
      <trkpt lat="50.61398" lon="4.43778">
        <ele>123</ele>
        <time>2014-02-02T10:22:27Z</time>
      </trkpt>
      <trkpt lat="50.61388" lon="4.43756">
        <ele>124</ele>
        <time>2014-02-02T10:22:38Z</time>
      </trkpt>
      <trkpt lat="50.61375" lon="4.43736">
        <ele>126</ele>
        <time>2014-02-02T10:22:49Z</time>
      </trkpt>
      <trkpt lat="50.61362" lon="4.4372">
        <ele>126</ele>
        <time>2014-02-02T10:23:00Z</time>
      </trkpt>
      <trkpt lat="50.61348" lon="4.43706">
        <ele>126</ele>
        <time>2014-02-02T10:23:11Z</time>
      </trkpt>
      <trkpt lat="50.61334" lon="4.43695">
        <ele>126</ele>
        <time>2014-02-02T10:23:22Z</time>
      </trkpt>
      <trkpt lat="50.61319" lon="4.43686">
        <ele>126</ele>
        <time>2014-02-02T10:23:33Z</time>
      </trkpt>
      <trkpt lat="50.61303" lon="4.43687">
        <ele>125</ele>
        <time>2014-02-02T10:23:44Z</time>
      </trkpt>
      <trkpt lat="50.61291" lon="4.43699">
        <ele>125</ele>
        <time>2014-02-02T10:23:55Z</time>
      </trkpt>
      <trkpt lat="50.61279" lon="4.4371">
        <ele>125</ele>
        <time>2014-02-02T10:24:06Z</time>
      </trkpt>
      <trkpt lat="50.61266" lon="4.43721">
        <ele>125</ele>
        <time>2014-02-02T10:24:17Z</time>
      </trkpt>
      <trkpt lat="50.61253" lon="4.43734">
        <ele>124</ele>
        <time>2014-02-02T10:24:28Z</time>
      </trkpt>
      <trkpt lat="50.61242" lon="4.43743">
        <ele>124</ele>
        <time>2014-02-02T10:24:39Z</time>
      </trkpt>
      <trkpt lat="50.61231" lon="4.43759">
        <ele>124</ele>
        <time>2014-02-02T10:24:51Z</time>
      </trkpt>
      <trkpt lat="50.61218" lon="4.43771">
        <ele>124</ele>
        <time>2014-02-02T10:25:01Z</time>
      </trkpt>
      <trkpt lat="50.61205" lon="4.43784">
        <ele>123</ele>
        <time>2014-02-02T10:25:12Z</time>
      </trkpt>
      <trkpt lat="50.61193" lon="4.43797">
        <ele>123</ele>
        <time>2014-02-02T10:25:23Z</time>
      </trkpt>
      <trkpt lat="50.61177" lon="4.43811">
        <ele>123</ele>
        <time>2014-02-02T10:25:35Z</time>
      </trkpt>
      <trkpt lat="50.61165" lon="4.43822">
        <ele>123</ele>
        <time>2014-02-02T10:25:45Z</time>
      </trkpt>
      <trkpt lat="50.6115" lon="4.43833">
        <ele>123</ele>
        <time>2014-02-02T10:25:56Z</time>
      </trkpt>
      <trkpt lat="50.61137" lon="4.43845">
        <ele>121</ele>
        <time>2014-02-02T10:26:07Z</time>
      </trkpt>
      <trkpt lat="50.61124" lon="4.43857">
        <ele>121</ele>
        <time>2014-02-02T10:26:18Z</time>
      </trkpt>
      <trkpt lat="50.61108" lon="4.43871">
        <ele>121</ele>
        <time>2014-02-02T10:26:30Z</time>
      </trkpt>
      <trkpt lat="50.61096" lon="4.43882">
        <ele>120</ele>
        <time>2014-02-02T10:26:40Z</time>
      </trkpt>
      <trkpt lat="50.61083" lon="4.43895">
        <ele>120</ele>
        <time>2014-02-02T10:26:51Z</time>
      </trkpt>
      <trkpt lat="50.61069" lon="4.43907">
        <ele>120</ele>
        <time>2014-02-02T10:27:02Z</time>
      </trkpt>
      <trkpt lat="50.61056" lon="4.4392">
        <ele>118</ele>
        <time>2014-02-02T10:27:13Z</time>
      </trkpt>
      <trkpt lat="50.61042" lon="4.43931">
        <ele>118</ele>
        <time>2014-02-02T10:27:24Z</time>
      </trkpt>
      <trkpt lat="50.6103" lon="4.43945">
        <ele>118</ele>
        <time>2014-02-02T10:27:36Z</time>
      </trkpt>
      <trkpt lat="50.61017" lon="4.43956">
        <ele>118</ele>
        <time>2014-02-02T10:27:46Z</time>
      </trkpt>
      <trkpt lat="50.61003" lon="4.43969">
        <ele>118</ele>
        <time>2014-02-02T10:27:57Z</time>
      </trkpt>
      <trkpt lat="50.60991" lon="4.43981">
        <ele>118</ele>
        <time>2014-02-02T10:28:08Z</time>
      </trkpt>
      <trkpt lat="50.60976" lon="4.43991">
        <ele>118</ele>
        <time>2014-02-02T10:28:19Z</time>
      </trkpt>
      <trkpt lat="50.60959" lon="4.44004">
        <ele>116</ele>
        <time>2014-02-02T10:28:30Z</time>
      </trkpt>
      <trkpt lat="50.60947" lon="4.44017">
        <ele>116</ele>
        <time>2014-02-02T10:28:41Z</time>
      </trkpt>
      <trkpt lat="50.60935" lon="4.4403">
        <ele>116</ele>
        <time>2014-02-02T10:28:52Z</time>
      </trkpt>
      <trkpt lat="50.60921" lon="4.44043">
        <ele>116</ele>
        <time>2014-02-02T10:29:03Z</time>
      </trkpt>
      <trkpt lat="50.60907" lon="4.44051">
        <ele>115</ele>
        <time>2014-02-02T10:29:14Z</time>
      </trkpt>
      <trkpt lat="50.60893" lon="4.44055">
        <ele>115</ele>
        <time>2014-02-02T10:29:25Z</time>
      </trkpt>
      <trkpt lat="50.60882" lon="4.44063">
        <ele>115</ele>
        <time>2014-02-02T10:29:36Z</time>
      </trkpt>
      <trkpt lat="50.60869" lon="4.44074">
        <ele>115</ele>
        <time>2014-02-02T10:29:47Z</time>
      </trkpt>
      <trkpt lat="50.60853" lon="4.44093">
        <ele>114</ele>
        <time>2014-02-02T10:30:02Z</time>
      </trkpt>
      <trkpt lat="50.60849" lon="4.44093">
        <ele>114</ele>
        <time>2014-02-02T10:30:09Z</time>
      </trkpt>
      <trkpt lat="50.60837" lon="4.44109">
        <ele>114</ele>
        <time>2014-02-02T10:30:20Z</time>
      </trkpt>
      <trkpt lat="50.60822" lon="4.44122">
        <ele>112</ele>
        <time>2014-02-02T10:30:32Z</time>
      </trkpt>
      <trkpt lat="50.60809" lon="4.44135">
        <ele>112</ele>
        <time>2014-02-02T10:30:42Z</time>
      </trkpt>
      <trkpt lat="50.60795" lon="4.44149">
        <ele>112</ele>
        <time>2014-02-02T10:30:53Z</time>
      </trkpt>
      <trkpt lat="50.60777" lon="4.44161">
        <ele>111</ele>
        <time>2014-02-02T10:31:06Z</time>
      </trkpt>
      <trkpt lat="50.60767" lon="4.44171">
        <ele>110</ele>
        <time>2014-02-02T10:31:15Z</time>
      </trkpt>
      <trkpt lat="50.60754" lon="4.44178">
        <ele>109</ele>
        <time>2014-02-02T10:31:26Z</time>
      </trkpt>
      <trkpt lat="50.60736" lon="4.44188">
        <ele>108</ele>
        <time>2014-02-02T10:31:37Z</time>
      </trkpt>
      <trkpt lat="50.60718" lon="4.442">
        <ele>107</ele>
        <time>2014-02-02T10:31:49Z</time>
      </trkpt>
      <trkpt lat="50.60706" lon="4.44209">
        <ele>107</ele>
        <time>2014-02-02T10:32:00Z</time>
      </trkpt>
      <trkpt lat="50.6069" lon="4.44217">
        <ele>107</ele>
        <time>2014-02-02T10:32:11Z</time>
      </trkpt>
      <trkpt lat="50.60676" lon="4.44216">
        <ele>107</ele>
        <time>2014-02-02T10:32:24Z</time>
      </trkpt>
      <trkpt lat="50.60667" lon="4.442">
        <ele>106</ele>
        <time>2014-02-02T10:32:33Z</time>
      </trkpt>
      <trkpt lat="50.60662" lon="4.44174">
        <ele>105</ele>
        <time>2014-02-02T10:32:44Z</time>
      </trkpt>
      <trkpt lat="50.60657" lon="4.44153">
        <ele>105</ele>
        <time>2014-02-02T10:32:55Z</time>
      </trkpt>
      <trkpt lat="50.60652" lon="4.44133">
        <ele>106</ele>
        <time>2014-02-02T10:33:06Z</time>
      </trkpt>
      <trkpt lat="50.60649" lon="4.44112">
        <ele>106</ele>
        <time>2014-02-02T10:33:17Z</time>
      </trkpt>
      <trkpt lat="50.60643" lon="4.44086">
        <ele>106</ele>
        <time>2014-02-02T10:33:34Z</time>
      </trkpt>
      <trkpt lat="50.60641" lon="4.44079">
        <ele>106</ele>
        <time>2014-02-02T10:33:39Z</time>
      </trkpt>
      <trkpt lat="50.60637" lon="4.44062">
        <ele>106</ele>
        <time>2014-02-02T10:33:50Z</time>
      </trkpt>
      <trkpt lat="50.60634" lon="4.44043">
        <ele>106</ele>
        <time>2014-02-02T10:34:01Z</time>
      </trkpt>
      <trkpt lat="50.60632" lon="4.44022">
        <ele>106</ele>
        <time>2014-02-02T10:34:12Z</time>
      </trkpt>
      <trkpt lat="50.6063" lon="4.43985">
        <ele>107</ele>
        <time>2014-02-02T10:34:27Z</time>
      </trkpt>
      <trkpt lat="50.60629" lon="4.43969">
        <ele>107</ele>
        <time>2014-02-02T10:34:34Z</time>
      </trkpt>
      <trkpt lat="50.60624" lon="4.43948">
        <ele>107</ele>
        <time>2014-02-02T10:34:45Z</time>
      </trkpt>
      <trkpt lat="50.6062" lon="4.4393">
        <ele>107</ele>
        <time>2014-02-02T10:34:56Z</time>
      </trkpt>
      <trkpt lat="50.60614" lon="4.43908">
        <ele>108</ele>
        <time>2014-02-02T10:35:10Z</time>
      </trkpt>
      <trkpt lat="50.60613" lon="4.43895">
        <ele>108</ele>
        <time>2014-02-02T10:35:18Z</time>
      </trkpt>
      <trkpt lat="50.60611" lon="4.43877">
        <ele>108</ele>
        <time>2014-02-02T10:35:29Z</time>
      </trkpt>
      <trkpt lat="50.60609" lon="4.43861">
        <ele>108</ele>
        <time>2014-02-02T10:35:40Z</time>
      </trkpt>
      <trkpt lat="50.60605" lon="4.43833">
        <ele>109</ele>
        <time>2014-02-02T10:35:56Z</time>
      </trkpt>
      <trkpt lat="50.60603" lon="4.43822">
        <ele>109</ele>
        <time>2014-02-02T10:36:02Z</time>
      </trkpt>
      <trkpt lat="50.60602" lon="4.43782">
        <ele>109</ele>
        <time>2014-02-02T10:36:22Z</time>
      </trkpt>
      <trkpt lat="50.60602" lon="4.43779">
        <ele>109</ele>
        <time>2014-02-02T10:36:24Z</time>
      </trkpt>
      <trkpt lat="50.606" lon="4.4375">
        <ele>110</ele>
        <time>2014-02-02T10:36:37Z</time>
      </trkpt>
      <trkpt lat="50.60598" lon="4.43722">
        <ele>110</ele>
        <time>2014-02-02T10:36:51Z</time>
      </trkpt>
      <trkpt lat="50.60596" lon="4.43713">
        <ele>110</ele>
        <time>2014-02-02T10:36:57Z</time>
      </trkpt>
      <trkpt lat="50.60593" lon="4.43696">
        <ele>110</ele>
        <time>2014-02-02T10:37:09Z</time>
      </trkpt>
      <trkpt lat="50.60589" lon="4.43673">
        <ele>111</ele>
        <time>2014-02-02T10:37:22Z</time>
      </trkpt>
      <trkpt lat="50.60586" lon="4.43657">
        <ele>111</ele>
        <time>2014-02-02T10:37:30Z</time>
      </trkpt>
      <trkpt lat="50.60583" lon="4.43634">
        <ele>111</ele>
        <time>2014-02-02T10:37:45Z</time>
      </trkpt>
      <trkpt lat="50.60581" lon="4.4362">
        <ele>111</ele>
        <time>2014-02-02T10:37:54Z</time>
      </trkpt>
      <trkpt lat="50.60578" lon="4.43595">
        <ele>111</ele>
        <time>2014-02-02T10:38:08Z</time>
      </trkpt>
      <trkpt lat="50.60574" lon="4.43571">
        <ele>111</ele>
        <time>2014-02-02T10:38:24Z</time>
      </trkpt>
      <trkpt lat="50.60573" lon="4.43569">
        <ele>111</ele>
        <time>2014-02-02T10:38:25Z</time>
      </trkpt>
      <trkpt lat="50.60568" lon="4.43534">
        <ele>111</ele>
        <time>2014-02-02T10:38:45Z</time>
      </trkpt>
      <trkpt lat="50.60568" lon="4.43531">
        <ele>111</ele>
        <time>2014-02-02T10:38:47Z</time>
      </trkpt>
      <trkpt lat="50.60567" lon="4.43513">
        <ele>111</ele>
        <time>2014-02-02T10:38:58Z</time>
      </trkpt>
      <trkpt lat="50.60565" lon="4.4348">
        <ele>110</ele>
        <time>2014-02-02T10:39:15Z</time>
      </trkpt>
      <trkpt lat="50.60564" lon="4.4347">
        <ele>110</ele>
        <time>2014-02-02T10:39:20Z</time>
      </trkpt>
      <trkpt lat="50.60561" lon="4.43447">
        <ele>110</ele>
        <time>2014-02-02T10:39:31Z</time>
      </trkpt>
      <trkpt lat="50.60559" lon="4.4342">
        <ele>110</ele>
        <time>2014-02-02T10:39:44Z</time>
      </trkpt>
      <trkpt lat="50.60557" lon="4.43402">
        <ele>109</ele>
        <time>2014-02-02T10:39:53Z</time>
      </trkpt>
      <trkpt lat="50.60555" lon="4.43373">
        <ele>109</ele>
        <time>2014-02-02T10:40:12Z</time>
      </trkpt>
      <trkpt lat="50.60555" lon="4.43368">
        <ele>109</ele>
        <time>2014-02-02T10:40:15Z</time>
      </trkpt>
      <trkpt lat="50.6055" lon="4.43336">
        <ele>109</ele>
        <time>2014-02-02T10:40:32Z</time>
      </trkpt>
      <trkpt lat="50.60549" lon="4.43328">
        <ele>109</ele>
        <time>2014-02-02T10:40:38Z</time>
      </trkpt>
      <trkpt lat="50.60545" lon="4.43293">
        <ele>109</ele>
        <time>2014-02-02T10:40:55Z</time>
      </trkpt>
      <trkpt lat="50.60544" lon="4.43286">
        <ele>109</ele>
        <time>2014-02-02T10:40:59Z</time>
      </trkpt>
      <trkpt lat="50.60542" lon="4.43253">
        <ele>109</ele>
        <time>2014-02-02T10:41:14Z</time>
      </trkpt>
      <trkpt lat="50.60539" lon="4.43238">
        <ele>110</ele>
        <time>2014-02-02T10:41:21Z</time>
      </trkpt>
      <trkpt lat="50.60535" lon="4.43199">
        <ele>110</ele>
        <time>2014-02-02T10:41:37Z</time>
      </trkpt>
      <trkpt lat="50.60534" lon="4.43163">
        <ele>110</ele>
        <time>2014-02-02T10:41:48Z</time>
      </trkpt>
      <trkpt lat="50.60534" lon="4.43147">
        <ele>110</ele>
        <time>2014-02-02T10:41:54Z</time>
      </trkpt>
      <trkpt lat="50.60532" lon="4.43098">
        <ele>110</ele>
        <time>2014-02-02T10:42:15Z</time>
      </trkpt>
      <trkpt lat="50.60532" lon="4.43094">
        <ele>110</ele>
        <time>2014-02-02T10:42:17Z</time>
      </trkpt>
      <trkpt lat="50.60529" lon="4.43043">
        <ele>110</ele>
        <time>2014-02-02T10:42:34Z</time>
      </trkpt>
      <trkpt lat="50.60528" lon="4.43031">
        <ele>110</ele>
        <time>2014-02-02T10:42:38Z</time>
      </trkpt>
      <trkpt lat="50.60525" lon="4.42982">
        <ele>110</ele>
        <time>2014-02-02T10:42:55Z</time>
      </trkpt>
      <trkpt lat="50.60523" lon="4.42966">
        <ele>110</ele>
        <time>2014-02-02T10:43:03Z</time>
      </trkpt>
      <trkpt lat="50.60523" lon="4.42947">
        <ele>110</ele>
        <time>2014-02-02T10:43:14Z</time>
      </trkpt>
      <trkpt lat="50.60522" lon="4.42925">
        <ele>110</ele>
        <time>2014-02-02T10:43:25Z</time>
      </trkpt>
      <trkpt lat="50.60524" lon="4.4291">
        <ele>110</ele>
        <time>2014-02-02T10:43:34Z</time>
      </trkpt>
      <trkpt lat="50.6053" lon="4.42876">
        <ele>110</ele>
        <time>2014-02-02T10:43:50Z</time>
      </trkpt>
      <trkpt lat="50.60538" lon="4.42853">
        <ele>110</ele>
        <time>2014-02-02T10:44:06Z</time>
      </trkpt>
      <trkpt lat="50.60539" lon="4.4285">
        <ele>110</ele>
        <time>2014-02-02T10:44:16Z</time>
      </trkpt>
      <trkpt lat="50.60539" lon="4.42856">
        <ele>110</ele>
        <time>2014-02-02T10:44:24Z</time>
      </trkpt>
      <trkpt lat="50.60541" lon="4.4286">
        <ele>110</ele>
        <time>2014-02-02T10:44:29Z</time>
      </trkpt>
      <trkpt lat="50.60542" lon="4.42879">
        <ele>110</ele>
        <time>2014-02-02T10:44:40Z</time>
      </trkpt>
      <trkpt lat="50.60543" lon="4.42897">
        <ele>110</ele>
        <time>2014-02-02T10:44:52Z</time>
      </trkpt>
      <trkpt lat="50.60534" lon="4.42907">
        <ele>110</ele>
        <time>2014-02-02T10:45:04Z</time>
      </trkpt>
      <trkpt lat="50.60522" lon="4.42911">
        <ele>110</ele>
        <time>2014-02-02T10:45:13Z</time>
      </trkpt>
      <trkpt lat="50.60504" lon="4.42919">
        <ele>110</ele>
        <time>2014-02-02T10:45:25Z</time>
      </trkpt>
      <trkpt lat="50.60489" lon="4.42928">
        <ele>109</ele>
        <time>2014-02-02T10:45:36Z</time>
      </trkpt>
      <trkpt lat="50.60476" lon="4.42937">
        <ele>109</ele>
        <time>2014-02-02T10:45:47Z</time>
      </trkpt>
      <trkpt lat="50.60464" lon="4.42945">
        <ele>109</ele>
        <time>2014-02-02T10:45:58Z</time>
      </trkpt>
      <trkpt lat="50.60453" lon="4.42956">
        <ele>109</ele>
        <time>2014-02-02T10:46:09Z</time>
      </trkpt>
      <trkpt lat="50.60438" lon="4.42959">
        <ele>109</ele>
        <time>2014-02-02T10:46:21Z</time>
      </trkpt>
      <trkpt lat="50.60426" lon="4.42967">
        <ele>109</ele>
        <time>2014-02-02T10:46:31Z</time>
      </trkpt>
      <trkpt lat="50.60412" lon="4.42979">
        <ele>109</ele>
        <time>2014-02-02T10:46:44Z</time>
      </trkpt>
      <trkpt lat="50.60404" lon="4.4299">
        <ele>109</ele>
        <time>2014-02-02T10:46:53Z</time>
      </trkpt>
      <trkpt lat="50.6039" lon="4.42999">
        <ele>110</ele>
        <time>2014-02-02T10:47:04Z</time>
      </trkpt>
      <trkpt lat="50.60384" lon="4.43018">
        <ele>111</ele>
        <time>2014-02-02T10:47:15Z</time>
      </trkpt>
      <trkpt lat="50.60378" lon="4.43036">
        <ele>111</ele>
        <time>2014-02-02T10:47:26Z</time>
      </trkpt>
      <trkpt lat="50.6037" lon="4.43059">
        <ele>112</ele>
        <time>2014-02-02T10:47:38Z</time>
      </trkpt>
      <trkpt lat="50.60364" lon="4.43073">
        <ele>112</ele>
        <time>2014-02-02T10:47:48Z</time>
      </trkpt>
      <trkpt lat="50.60356" lon="4.43091">
        <ele>113</ele>
        <time>2014-02-02T10:47:59Z</time>
      </trkpt>
      <trkpt lat="50.60351" lon="4.43108">
        <ele>113</ele>
        <time>2014-02-02T10:48:10Z</time>
      </trkpt>
      <trkpt lat="50.60343" lon="4.43124">
        <ele>114</ele>
        <time>2014-02-02T10:48:21Z</time>
      </trkpt>
      <trkpt lat="50.60335" lon="4.43137">
        <ele>114</ele>
        <time>2014-02-02T10:48:32Z</time>
      </trkpt>
      <trkpt lat="50.60329" lon="4.43149">
        <ele>117</ele>
        <time>2014-02-02T10:48:44Z</time>
      </trkpt>
      <trkpt lat="50.6032" lon="4.43163">
        <ele>118</ele>
        <time>2014-02-02T10:48:55Z</time>
      </trkpt>
      <trkpt lat="50.60311" lon="4.43177">
        <ele>118</ele>
        <time>2014-02-02T10:49:09Z</time>
      </trkpt>
      <trkpt lat="50.60305" lon="4.43183">
        <ele>119</ele>
        <time>2014-02-02T10:49:18Z</time>
      </trkpt>
      <trkpt lat="50.60296" lon="4.43195">
        <ele>119</ele>
        <time>2014-02-02T10:49:28Z</time>
      </trkpt>
      <trkpt lat="50.60283" lon="4.43208">
        <ele>119</ele>
        <time>2014-02-02T10:49:39Z</time>
      </trkpt>
      <trkpt lat="50.60271" lon="4.4322">
        <ele>120</ele>
        <time>2014-02-02T10:49:50Z</time>
      </trkpt>
      <trkpt lat="50.6026" lon="4.4323">
        <ele>120</ele>
        <time>2014-02-02T10:50:01Z</time>
      </trkpt>
      <trkpt lat="50.60248" lon="4.43243">
        <ele>121</ele>
        <time>2014-02-02T10:50:12Z</time>
      </trkpt>
      <trkpt lat="50.60235" lon="4.43256">
        <ele>120</ele>
        <time>2014-02-02T10:50:23Z</time>
      </trkpt>
      <trkpt lat="50.60223" lon="4.43273">
        <ele>119</ele>
        <time>2014-02-02T10:50:35Z</time>
      </trkpt>
      <trkpt lat="50.60214" lon="4.43287">
        <ele>119</ele>
        <time>2014-02-02T10:50:45Z</time>
      </trkpt>
      <trkpt lat="50.60204" lon="4.43303">
        <ele>119</ele>
        <time>2014-02-02T10:50:56Z</time>
      </trkpt>
      <trkpt lat="50.60196" lon="4.43318">
        <ele>118</ele>
        <time>2014-02-02T10:51:07Z</time>
      </trkpt>
      <trkpt lat="50.60187" lon="4.43333">
        <ele>118</ele>
        <time>2014-02-02T10:51:18Z</time>
      </trkpt>
      <trkpt lat="50.60178" lon="4.43347">
        <ele>117</ele>
        <time>2014-02-02T10:51:29Z</time>
      </trkpt>
      <trkpt lat="50.60161" lon="4.43371">
        <ele>118</ele>
        <time>2014-02-02T10:51:50Z</time>
      </trkpt>
      <trkpt lat="50.60158" lon="4.43375">
        <ele>118</ele>
        <time>2014-02-02T10:51:53Z</time>
      </trkpt>
      <trkpt lat="50.60151" lon="4.43388">
        <ele>118</ele>
        <time>2014-02-02T10:52:02Z</time>
      </trkpt>
      <trkpt lat="50.60148" lon="4.434">
        <ele>118</ele>
        <time>2014-02-02T10:52:13Z</time>
      </trkpt>
      <trkpt lat="50.60138" lon="4.43418">
        <ele>119</ele>
        <time>2014-02-02T10:52:25Z</time>
      </trkpt>
      <trkpt lat="50.60136" lon="4.43434">
        <ele>119</ele>
        <time>2014-02-02T10:52:36Z</time>
      </trkpt>
      <trkpt lat="50.60134" lon="4.4345">
        <ele>120</ele>
        <time>2014-02-02T10:52:46Z</time>
      </trkpt>
      <trkpt lat="50.60128" lon="4.43493">
        <ele>120</ele>
        <time>2014-02-02T10:53:08Z</time>
      </trkpt>
      <trkpt lat="50.60128" lon="4.43495">
        <ele>120</ele>
        <time>2014-02-02T10:53:09Z</time>
      </trkpt>
      <trkpt lat="50.6013" lon="4.43514">
        <ele>121</ele>
        <time>2014-02-02T10:53:20Z</time>
      </trkpt>
      <trkpt lat="50.6013" lon="4.4354">
        <ele>121</ele>
        <time>2014-02-02T10:53:33Z</time>
      </trkpt>
      <trkpt lat="50.60129" lon="4.43564">
        <ele>121</ele>
        <time>2014-02-02T10:53:43Z</time>
      </trkpt>
      <trkpt lat="50.6013" lon="4.43583">
        <ele>121</ele>
        <time>2014-02-02T10:53:53Z</time>
      </trkpt>
      <trkpt lat="50.6013" lon="4.43607">
        <ele>122</ele>
        <time>2014-02-02T10:54:04Z</time>
      </trkpt>
      <trkpt lat="50.60129" lon="4.43619">
        <ele>122</ele>
        <time>2014-02-02T10:54:16Z</time>
      </trkpt>
      <trkpt lat="50.60129" lon="4.43642">
        <ele>122</ele>
        <time>2014-02-02T10:54:26Z</time>
      </trkpt>
      <trkpt lat="50.60127" lon="4.43668">
        <ele>123</ele>
        <time>2014-02-02T10:54:38Z</time>
      </trkpt>
      <trkpt lat="50.60128" lon="4.43686">
        <ele>123</ele>
        <time>2014-02-02T10:54:49Z</time>
      </trkpt>
      <trkpt lat="50.60126" lon="4.43712">
        <ele>123</ele>
        <time>2014-02-02T10:55:03Z</time>
      </trkpt>
      <trkpt lat="50.6012" lon="4.43734">
        <ele>123</ele>
        <time>2014-02-02T10:55:13Z</time>
      </trkpt>
      <trkpt lat="50.60115" lon="4.43756">
        <ele>122</ele>
        <time>2014-02-02T10:55:24Z</time>
      </trkpt>
      <trkpt lat="50.60115" lon="4.4377">
        <ele>122</ele>
        <time>2014-02-02T10:55:35Z</time>
      </trkpt>
      <trkpt lat="50.6011" lon="4.43792">
        <ele>122</ele>
        <time>2014-02-02T10:55:47Z</time>
      </trkpt>
      <trkpt lat="50.60107" lon="4.4381">
        <ele>122</ele>
        <time>2014-02-02T10:55:57Z</time>
      </trkpt>
      <trkpt lat="50.60101" lon="4.43832">
        <ele>122</ele>
        <time>2014-02-02T10:56:08Z</time>
      </trkpt>
      <trkpt lat="50.60099" lon="4.4385">
        <ele>122</ele>
        <time>2014-02-02T10:56:19Z</time>
      </trkpt>
      <trkpt lat="50.60095" lon="4.43872">
        <ele>122</ele>
        <time>2014-02-02T10:56:30Z</time>
      </trkpt>
      <trkpt lat="50.60087" lon="4.43897">
        <ele>121</ele>
        <time>2014-02-02T10:56:41Z</time>
      </trkpt>
      <trkpt lat="50.60081" lon="4.43918">
        <ele>121</ele>
        <time>2014-02-02T10:56:52Z</time>
      </trkpt>
      <trkpt lat="50.60075" lon="4.43941">
        <ele>119</ele>
        <time>2014-02-02T10:57:03Z</time>
      </trkpt>
      <trkpt lat="50.6007" lon="4.43964">
        <ele>119</ele>
        <time>2014-02-02T10:57:15Z</time>
      </trkpt>
      <trkpt lat="50.60065" lon="4.43985">
        <ele>118</ele>
        <time>2014-02-02T10:57:25Z</time>
      </trkpt>
      <trkpt lat="50.60056" lon="4.44007">
        <ele>117</ele>
        <time>2014-02-02T10:57:36Z</time>
      </trkpt>
      <trkpt lat="50.60051" lon="4.44024">
        <ele>117</ele>
        <time>2014-02-02T10:57:47Z</time>
      </trkpt>
      <trkpt lat="50.60053" lon="4.44043">
        <ele>116</ele>
        <time>2014-02-02T10:57:58Z</time>
      </trkpt>
      <trkpt lat="50.6005" lon="4.44067">
        <ele>116</ele>
        <time>2014-02-02T10:58:10Z</time>
      </trkpt>
      <trkpt lat="50.60046" lon="4.44088">
        <ele>115</ele>
        <time>2014-02-02T10:58:21Z</time>
      </trkpt>
      <trkpt lat="50.60039" lon="4.44108">
        <ele>115</ele>
        <time>2014-02-02T10:58:31Z</time>
      </trkpt>
      <trkpt lat="50.60036" lon="4.4413">
        <ele>114</ele>
        <time>2014-02-02T10:58:42Z</time>
      </trkpt>
      <trkpt lat="50.60034" lon="4.44152">
        <ele>114</ele>
        <time>2014-02-02T10:58:53Z</time>
      </trkpt>
      <trkpt lat="50.60032" lon="4.44177">
        <ele>113</ele>
        <time>2014-02-02T10:59:05Z</time>
      </trkpt>
      <trkpt lat="50.6003" lon="4.44201">
        <ele>113</ele>
        <time>2014-02-02T10:59:15Z</time>
      </trkpt>
      <trkpt lat="50.60027" lon="4.44224">
        <ele>113</ele>
        <time>2014-02-02T10:59:26Z</time>
      </trkpt>
      <trkpt lat="50.60022" lon="4.44246">
        <ele>113</ele>
        <time>2014-02-02T10:59:38Z</time>
      </trkpt>
      <trkpt lat="50.6001" lon="4.44238">
        <ele>113</ele>
        <time>2014-02-02T10:59:49Z</time>
      </trkpt>
      <trkpt lat="50.59997" lon="4.44234">
        <ele>113</ele>
        <time>2014-02-02T11:00:01Z</time>
      </trkpt>
      <trkpt lat="50.59986" lon="4.44229">
        <ele>113</ele>
        <time>2014-02-02T11:00:10Z</time>
      </trkpt>
      <trkpt lat="50.59974" lon="4.44228">
        <ele>113</ele>
        <time>2014-02-02T11:00:21Z</time>
      </trkpt>
      <trkpt lat="50.59961" lon="4.44232">
        <ele>114</ele>
        <time>2014-02-02T11:00:32Z</time>
      </trkpt>
      <trkpt lat="50.59936" lon="4.44237">
        <ele>113</ele>
        <time>2014-02-02T11:00:52Z</time>
      </trkpt>
      <trkpt lat="50.59932" lon="4.44238">
        <ele>113</ele>
        <time>2014-02-02T11:00:55Z</time>
      </trkpt>
      <trkpt lat="50.5992" lon="4.4424">
        <ele>113</ele>
        <time>2014-02-02T11:01:05Z</time>
      </trkpt>
      <trkpt lat="50.59908" lon="4.44242">
        <ele>114</ele>
        <time>2014-02-02T11:01:16Z</time>
      </trkpt>
      <trkpt lat="50.59896" lon="4.44246">
        <ele>114</ele>
        <time>2014-02-02T11:01:27Z</time>
      </trkpt>
      <trkpt lat="50.59883" lon="4.44244">
        <ele>115</ele>
        <time>2014-02-02T11:01:38Z</time>
      </trkpt>
      <trkpt lat="50.59854" lon="4.44251">
        <ele>114</ele>
        <time>2014-02-02T11:01:59Z</time>
      </trkpt>
      <trkpt lat="50.59853" lon="4.44252">
        <ele>114</ele>
        <time>2014-02-02T11:02:00Z</time>
      </trkpt>
      <trkpt lat="50.5984" lon="4.44263">
        <ele>114</ele>
        <time>2014-02-02T11:02:11Z</time>
      </trkpt>
      <trkpt lat="50.59829" lon="4.44264">
        <ele>114</ele>
        <time>2014-02-02T11:02:22Z</time>
      </trkpt>
      <trkpt lat="50.59817" lon="4.44251">
        <ele>114</ele>
        <time>2014-02-02T11:02:33Z</time>
      </trkpt>
      <trkpt lat="50.59805" lon="4.44246">
        <ele>115</ele>
        <time>2014-02-02T11:02:44Z</time>
      </trkpt>
      <trkpt lat="50.59793" lon="4.44227">
        <ele>115</ele>
        <time>2014-02-02T11:02:55Z</time>
      </trkpt>
      <trkpt lat="50.59784" lon="4.44213">
        <ele>115</ele>
        <time>2014-02-02T11:03:06Z</time>
      </trkpt>
      <trkpt lat="50.59778" lon="4.44203">
        <ele>115</ele>
        <time>2014-02-02T11:03:17Z</time>
      </trkpt>
      <trkpt lat="50.59771" lon="4.44189">
        <ele>115</ele>
        <time>2014-02-02T11:03:28Z</time>
      </trkpt>
      <trkpt lat="50.5976" lon="4.4417">
        <ele>114</ele>
        <time>2014-02-02T11:03:39Z</time>
      </trkpt>
      <trkpt lat="50.59749" lon="4.44152">
        <ele>114</ele>
        <time>2014-02-02T11:03:50Z</time>
      </trkpt>
      <trkpt lat="50.59741" lon="4.44133">
        <ele>113</ele>
        <time>2014-02-02T11:04:01Z</time>
      </trkpt>
      <trkpt lat="50.59739" lon="4.44111">
        <ele>114</ele>
        <time>2014-02-02T11:04:13Z</time>
      </trkpt>
      <trkpt lat="50.59745" lon="4.44095">
        <ele>115</ele>
        <time>2014-02-02T11:04:23Z</time>
      </trkpt>
      <trkpt lat="50.59754" lon="4.4408">
        <ele>117</ele>
        <time>2014-02-02T11:04:34Z</time>
      </trkpt>
      <trkpt lat="50.59765" lon="4.44066">
        <ele>118</ele>
        <time>2014-02-02T11:04:45Z</time>
      </trkpt>
      <trkpt lat="50.59777" lon="4.44051">
        <ele>118</ele>
        <time>2014-02-02T11:04:56Z</time>
      </trkpt>
      <trkpt lat="50.5978" lon="4.44034">
        <ele>119</ele>
        <time>2014-02-02T11:05:07Z</time>
      </trkpt>
      <trkpt lat="50.59776" lon="4.44011">
        <ele>119</ele>
        <time>2014-02-02T11:05:22Z</time>
      </trkpt>
      <trkpt lat="50.59772" lon="4.43997">
        <ele>119</ele>
        <time>2014-02-02T11:05:29Z</time>
      </trkpt>
      <trkpt lat="50.59764" lon="4.43981">
        <ele>119</ele>
        <time>2014-02-02T11:05:40Z</time>
      </trkpt>
      <trkpt lat="50.59756" lon="4.43963">
        <ele>120</ele>
        <time>2014-02-02T11:05:51Z</time>
      </trkpt>
      <trkpt lat="50.59748" lon="4.43946">
        <ele>117</ele>
        <time>2014-02-02T11:06:03Z</time>
      </trkpt>
      <trkpt lat="50.5974" lon="4.43929">
        <ele>118</ele>
        <time>2014-02-02T11:06:16Z</time>
      </trkpt>
      <trkpt lat="50.59734" lon="4.4391">
        <ele>119</ele>
        <time>2014-02-02T11:06:24Z</time>
      </trkpt>
      <trkpt lat="50.59729" lon="4.43895">
        <ele>118</ele>
        <time>2014-02-02T11:06:35Z</time>
      </trkpt>
      <trkpt lat="50.59722" lon="4.43875">
        <ele>118</ele>
        <time>2014-02-02T11:06:46Z</time>
      </trkpt>
      <trkpt lat="50.59715" lon="4.43856">
        <ele>118</ele>
        <time>2014-02-02T11:06:57Z</time>
      </trkpt>
      <trkpt lat="50.59707" lon="4.43833">
        <ele>119</ele>
        <time>2014-02-02T11:07:08Z</time>
      </trkpt>
      <trkpt lat="50.59698" lon="4.43808">
        <ele>119</ele>
        <time>2014-02-02T11:07:19Z</time>
      </trkpt>
      <trkpt lat="50.59691" lon="4.43784">
        <ele>119</ele>
        <time>2014-02-02T11:07:30Z</time>
      </trkpt>
      <trkpt lat="50.59684" lon="4.43761">
        <ele>119</ele>
        <time>2014-02-02T11:07:41Z</time>
      </trkpt>
      <trkpt lat="50.59677" lon="4.43743">
        <ele>119</ele>
        <time>2014-02-02T11:07:52Z</time>
      </trkpt>
      <trkpt lat="50.59671" lon="4.43727">
        <ele>120</ele>
        <time>2014-02-02T11:08:03Z</time>
      </trkpt>
      <trkpt lat="50.59662" lon="4.43698">
        <ele>118</ele>
        <time>2014-02-02T11:08:14Z</time>
      </trkpt>
      <trkpt lat="50.59655" lon="4.43681">
        <ele>119</ele>
        <time>2014-02-02T11:08:25Z</time>
      </trkpt>
      <trkpt lat="50.59649" lon="4.43663">
        <ele>120</ele>
        <time>2014-02-02T11:08:37Z</time>
      </trkpt>
      <trkpt lat="50.59642" lon="4.43641">
        <ele>120</ele>
        <time>2014-02-02T11:08:47Z</time>
      </trkpt>
      <trkpt lat="50.59634" lon="4.43618">
        <ele>120</ele>
        <time>2014-02-02T11:08:59Z</time>
      </trkpt>
      <trkpt lat="50.59627" lon="4.43596">
        <ele>120</ele>
        <time>2014-02-02T11:09:10Z</time>
      </trkpt>
      <trkpt lat="50.59623" lon="4.43585">
        <ele>120</ele>
        <time>2014-02-02T11:09:20Z</time>
      </trkpt>
      <trkpt lat="50.59617" lon="4.43572">
        <ele>121</ele>
        <time>2014-02-02T11:09:31Z</time>
      </trkpt>
      <trkpt lat="50.59612" lon="4.43559">
        <ele>121</ele>
        <time>2014-02-02T11:09:42Z</time>
      </trkpt>
      <trkpt lat="50.59605" lon="4.4354">
        <ele>121</ele>
        <time>2014-02-02T11:09:53Z</time>
      </trkpt>
      <trkpt lat="50.59597" lon="4.43515">
        <ele>120</ele>
        <time>2014-02-02T11:10:04Z</time>
      </trkpt>
      <trkpt lat="50.59588" lon="4.43495">
        <ele>120</ele>
        <time>2014-02-02T11:10:15Z</time>
      </trkpt>
      <trkpt lat="50.59581" lon="4.43472">
        <ele>119</ele>
        <time>2014-02-02T11:10:27Z</time>
      </trkpt>
      <trkpt lat="50.59575" lon="4.43447">
        <ele>120</ele>
        <time>2014-02-02T11:10:38Z</time>
      </trkpt>
      <trkpt lat="50.59567" lon="4.43426">
        <ele>121</ele>
        <time>2014-02-02T11:10:49Z</time>
      </trkpt>
      <trkpt lat="50.5956" lon="4.43405">
        <ele>123</ele>
        <time>2014-02-02T11:11:00Z</time>
      </trkpt>
      <trkpt lat="50.59554" lon="4.43385">
        <ele>123</ele>
        <time>2014-02-02T11:11:11Z</time>
      </trkpt>
      <trkpt lat="50.59547" lon="4.43366">
        <ele>123</ele>
        <time>2014-02-02T11:11:22Z</time>
      </trkpt>
      <trkpt lat="50.5954" lon="4.43347">
        <ele>123</ele>
        <time>2014-02-02T11:11:33Z</time>
      </trkpt>
      <trkpt lat="50.59534" lon="4.43329">
        <ele>125</ele>
        <time>2014-02-02T11:11:43Z</time>
      </trkpt>
      <trkpt lat="50.59528" lon="4.4331">
        <ele>125</ele>
        <time>2014-02-02T11:11:55Z</time>
      </trkpt>
      <trkpt lat="50.59519" lon="4.43295">
        <ele>125</ele>
        <time>2014-02-02T11:12:07Z</time>
      </trkpt>
      <trkpt lat="50.59511" lon="4.43272">
        <ele>125</ele>
        <time>2014-02-02T11:12:18Z</time>
      </trkpt>
      <trkpt lat="50.59503" lon="4.4325">
        <ele>125</ele>
        <time>2014-02-02T11:12:28Z</time>
      </trkpt>
      <trkpt lat="50.59493" lon="4.43225">
        <ele>123</ele>
        <time>2014-02-02T11:12:42Z</time>
      </trkpt>
      <trkpt lat="50.59489" lon="4.43208">
        <ele>124</ele>
        <time>2014-02-02T11:12:50Z</time>
      </trkpt>
      <trkpt lat="50.59483" lon="4.43186">
        <ele>124</ele>
        <time>2014-02-02T11:13:00Z</time>
      </trkpt>
      <trkpt lat="50.59477" lon="4.43167">
        <ele>124</ele>
        <time>2014-02-02T11:13:12Z</time>
      </trkpt>
      <trkpt lat="50.5947" lon="4.43147">
        <ele>126</ele>
        <time>2014-02-02T11:13:23Z</time>
      </trkpt>
      <trkpt lat="50.59462" lon="4.43118">
        <ele>126</ele>
        <time>2014-02-02T11:13:37Z</time>
      </trkpt>
      <trkpt lat="50.59457" lon="4.43107">
        <ele>127</ele>
        <time>2014-02-02T11:13:45Z</time>
      </trkpt>
      <trkpt lat="50.5945" lon="4.43093">
        <ele>127</ele>
        <time>2014-02-02T11:13:56Z</time>
      </trkpt>
      <trkpt lat="50.59442" lon="4.43072">
        <ele>128</ele>
        <time>2014-02-02T11:14:06Z</time>
      </trkpt>
      <trkpt lat="50.59433" lon="4.43054">
        <ele>128</ele>
        <time>2014-02-02T11:14:19Z</time>
      </trkpt>
      <trkpt lat="50.59423" lon="4.43036">
        <ele>129</ele>
        <time>2014-02-02T11:14:28Z</time>
      </trkpt>
      <trkpt lat="50.59414" lon="4.43012">
        <ele>128</ele>
        <time>2014-02-02T11:14:40Z</time>
      </trkpt>
      <trkpt lat="50.59407" lon="4.42999">
        <ele>129</ele>
        <time>2014-02-02T11:14:50Z</time>
      </trkpt>
      <trkpt lat="50.59399" lon="4.4298">
        <ele>128</ele>
        <time>2014-02-02T11:15:01Z</time>
      </trkpt>
      <trkpt lat="50.5939" lon="4.42962">
        <ele>128</ele>
        <time>2014-02-02T11:15:12Z</time>
      </trkpt>
      <trkpt lat="50.59381" lon="4.42943">
        <ele>128</ele>
        <time>2014-02-02T11:15:23Z</time>
      </trkpt>
      <trkpt lat="50.59372" lon="4.42925">
        <ele>128</ele>
        <time>2014-02-02T11:15:35Z</time>
      </trkpt>
      <trkpt lat="50.59362" lon="4.42911">
        <ele>129</ele>
        <time>2014-02-02T11:15:45Z</time>
      </trkpt>
      <trkpt lat="50.59356" lon="4.42896">
        <ele>129</ele>
        <time>2014-02-02T11:15:57Z</time>
      </trkpt>
      <trkpt lat="50.59346" lon="4.42893">
        <ele>129</ele>
        <time>2014-02-02T11:16:08Z</time>
      </trkpt>
      <trkpt lat="50.59338" lon="4.42899">
        <ele>128</ele>
        <time>2014-02-02T11:16:18Z</time>
      </trkpt>
      <trkpt lat="50.59325" lon="4.4291">
        <ele>127</ele>
        <time>2014-02-02T11:16:30Z</time>
      </trkpt>
      <trkpt lat="50.59315" lon="4.42921">
        <ele>125</ele>
        <time>2014-02-02T11:16:41Z</time>
      </trkpt>
      <trkpt lat="50.59305" lon="4.42933">
        <ele>125</ele>
        <time>2014-02-02T11:16:52Z</time>
      </trkpt>
      <trkpt lat="50.59295" lon="4.42945">
        <ele>124</ele>
        <time>2014-02-02T11:17:05Z</time>
      </trkpt>
      <trkpt lat="50.59286" lon="4.42955">
        <ele>124</ele>
        <time>2014-02-02T11:17:15Z</time>
      </trkpt>
      <trkpt lat="50.59273" lon="4.42965">
        <ele>123</ele>
        <time>2014-02-02T11:17:25Z</time>
      </trkpt>
      <trkpt lat="50.59265" lon="4.42973">
        <ele>123</ele>
        <time>2014-02-02T11:17:36Z</time>
      </trkpt>
      <trkpt lat="50.59259" lon="4.42989">
        <ele>122</ele>
        <time>2014-02-02T11:17:49Z</time>
      </trkpt>
      <trkpt lat="50.5923" lon="4.4302">
        <ele>119</ele>
        <time>2014-02-02T11:18:08Z</time>
      </trkpt>
      <trkpt lat="50.59226" lon="4.43025">
        <ele>119</ele>
        <time>2014-02-02T11:18:11Z</time>
      </trkpt>
      <trkpt lat="50.59209" lon="4.43039">
        <ele>119</ele>
        <time>2014-02-02T11:18:21Z</time>
      </trkpt>
      <trkpt lat="50.59202" lon="4.4305">
        <ele>118</ele>
        <time>2014-02-02T11:18:31Z</time>
      </trkpt>
      <trkpt lat="50.59202" lon="4.43062">
        <ele>118</ele>
        <time>2014-02-02T11:18:42Z</time>
      </trkpt>
      <trkpt lat="50.59206" lon="4.43082">
        <ele>118</ele>
        <time>2014-02-02T11:18:55Z</time>
      </trkpt>
      <trkpt lat="50.5921" lon="4.43096">
        <ele>117</ele>
        <time>2014-02-02T11:19:04Z</time>
      </trkpt>
      <trkpt lat="50.59209" lon="4.4311">
        <ele>117</ele>
        <time>2014-02-02T11:19:16Z</time>
      </trkpt>
      <trkpt lat="50.59202" lon="4.43139">
        <ele>116</ele>
        <time>2014-02-02T11:19:27Z</time>
      </trkpt>
      <trkpt lat="50.59195" lon="4.43169">
        <ele>116</ele>
        <time>2014-02-02T11:19:39Z</time>
      </trkpt>
      <trkpt lat="50.59189" lon="4.43191">
        <ele>116</ele>
        <time>2014-02-02T11:19:50Z</time>
      </trkpt>
      <trkpt lat="50.59185" lon="4.43211">
        <ele>116</ele>
        <time>2014-02-02T11:20:00Z</time>
      </trkpt>
      <trkpt lat="50.5918" lon="4.43235">
        <ele>117</ele>
        <time>2014-02-02T11:20:11Z</time>
      </trkpt>
      <trkpt lat="50.59177" lon="4.43253">
        <ele>117</ele>
        <time>2014-02-02T11:20:23Z</time>
      </trkpt>
      <trkpt lat="50.5917" lon="4.43269">
        <ele>117</ele>
        <time>2014-02-02T11:20:33Z</time>
      </trkpt>
      <trkpt lat="50.59163" lon="4.4328">
        <ele>119</ele>
        <time>2014-02-02T11:20:44Z</time>
      </trkpt>
      <trkpt lat="50.59155" lon="4.43298">
        <ele>119</ele>
        <time>2014-02-02T11:20:54Z</time>
      </trkpt>
      <trkpt lat="50.59149" lon="4.43319">
        <ele>119</ele>
        <time>2014-02-02T11:21:07Z</time>
      </trkpt>
      <trkpt lat="50.59145" lon="4.43337">
        <ele>119</ele>
        <time>2014-02-02T11:21:16Z</time>
      </trkpt>
      <trkpt lat="50.59141" lon="4.43357">
        <ele>119</ele>
        <time>2014-02-02T11:21:28Z</time>
      </trkpt>
      <trkpt lat="50.59134" lon="4.4338">
        <ele>118</ele>
        <time>2014-02-02T11:21:40Z</time>
      </trkpt>
      <trkpt lat="50.59128" lon="4.43397">
        <ele>118</ele>
        <time>2014-02-02T11:21:51Z</time>
      </trkpt>
      <trkpt lat="50.59121" lon="4.43416">
        <ele>118</ele>
        <time>2014-02-02T11:22:01Z</time>
      </trkpt>
      <trkpt lat="50.59112" lon="4.43432">
        <ele>117</ele>
        <time>2014-02-02T11:22:12Z</time>
      </trkpt>
      <trkpt lat="50.59106" lon="4.43453">
        <ele>116</ele>
        <time>2014-02-02T11:22:24Z</time>
      </trkpt>
      <trkpt lat="50.591" lon="4.43471">
        <ele>116</ele>
        <time>2014-02-02T11:22:34Z</time>
      </trkpt>
      <trkpt lat="50.59097" lon="4.43489">
        <ele>116</ele>
        <time>2014-02-02T11:22:45Z</time>
      </trkpt>
      <trkpt lat="50.59091" lon="4.43512">
        <ele>115</ele>
        <time>2014-02-02T11:22:57Z</time>
      </trkpt>
      <trkpt lat="50.59086" lon="4.43534">
        <ele>115</ele>
        <time>2014-02-02T11:23:07Z</time>
      </trkpt>
      <trkpt lat="50.59088" lon="4.43554">
        <ele>115</ele>
        <time>2014-02-02T11:23:18Z</time>
      </trkpt>
      <trkpt lat="50.59089" lon="4.43574">
        <ele>115</ele>
        <time>2014-02-02T11:23:29Z</time>
      </trkpt>
      <trkpt lat="50.59094" lon="4.43597">
        <ele>115</ele>
        <time>2014-02-02T11:23:43Z</time>
      </trkpt>
      <trkpt lat="50.59095" lon="4.43615">
        <ele>114</ele>
        <time>2014-02-02T11:23:52Z</time>
      </trkpt>
      <trkpt lat="50.59099" lon="4.4363">
        <ele>114</ele>
        <time>2014-02-02T11:24:03Z</time>
      </trkpt>
      <trkpt lat="50.59101" lon="4.43647">
        <ele>114</ele>
        <time>2014-02-02T11:24:14Z</time>
      </trkpt>
      <trkpt lat="50.59101" lon="4.4367">
        <ele>114</ele>
        <time>2014-02-02T11:24:25Z</time>
      </trkpt>
      <trkpt lat="50.59105" lon="4.43701">
        <ele>114</ele>
        <time>2014-02-02T11:24:38Z</time>
      </trkpt>
      <trkpt lat="50.59107" lon="4.43726">
        <ele>115</ele>
        <time>2014-02-02T11:24:54Z</time>
      </trkpt>
      <trkpt lat="50.59106" lon="4.43738">
        <ele>115</ele>
        <time>2014-02-02T11:24:58Z</time>
      </trkpt>
      <trkpt lat="50.59102" lon="4.43771">
        <ele>117</ele>
        <time>2014-02-02T11:25:09Z</time>
      </trkpt>
      <trkpt lat="50.59103" lon="4.43795">
        <ele>118</ele>
        <time>2014-02-02T11:25:21Z</time>
      </trkpt>
      <trkpt lat="50.59095" lon="4.43813">
        <ele>118</ele>
        <time>2014-02-02T11:25:31Z</time>
      </trkpt>
      <trkpt lat="50.59098" lon="4.43825">
        <ele>118</ele>
        <time>2014-02-02T11:25:42Z</time>
      </trkpt>
      <trkpt lat="50.59099" lon="4.43845">
        <ele>119</ele>
        <time>2014-02-02T11:25:54Z</time>
      </trkpt>
      <trkpt lat="50.59108" lon="4.43866">
        <ele>120</ele>
        <time>2014-02-02T11:26:09Z</time>
      </trkpt>
      <trkpt lat="50.59101" lon="4.43871">
        <ele>120</ele>
        <time>2014-02-02T11:26:15Z</time>
      </trkpt>
      <trkpt lat="50.59086" lon="4.43883">
        <ele>120</ele>
        <time>2014-02-02T11:26:26Z</time>
      </trkpt>
      <trkpt lat="50.59074" lon="4.43896">
        <ele>119</ele>
        <time>2014-02-02T11:26:37Z</time>
      </trkpt>
      <trkpt lat="50.59059" lon="4.43907">
        <ele>119</ele>
        <time>2014-02-02T11:26:54Z</time>
      </trkpt>
      <trkpt lat="50.59044" lon="4.43922">
        <ele>120</ele>
        <time>2014-02-02T11:27:03Z</time>
      </trkpt>
      <trkpt lat="50.59032" lon="4.43938">
        <ele>120</ele>
        <time>2014-02-02T11:27:11Z</time>
      </trkpt>
      <trkpt lat="50.59022" lon="4.43951">
        <ele>120</ele>
        <time>2014-02-02T11:27:23Z</time>
      </trkpt>
      <trkpt lat="50.59019" lon="4.43968">
        <ele>121</ele>
        <time>2014-02-02T11:27:36Z</time>
      </trkpt>
      <trkpt lat="50.59014" lon="4.44007">
        <ele>122</ele>
        <time>2014-02-02T11:27:50Z</time>
      </trkpt>
      <trkpt lat="50.59007" lon="4.4403">
        <ele>122</ele>
        <time>2014-02-02T11:28:06Z</time>
      </trkpt>
      <trkpt lat="50.59015" lon="4.44043">
        <ele>122</ele>
        <time>2014-02-02T11:28:17Z</time>
      </trkpt>
      <trkpt lat="50.59016" lon="4.44044">
        <ele>122</ele>
        <time>2014-02-02T11:28:18Z</time>
      </trkpt>
      <trkpt lat="50.5902" lon="4.44056">
        <ele>122</ele>
        <time>2014-02-02T11:28:29Z</time>
      </trkpt>
      <trkpt lat="50.5903" lon="4.44077">
        <ele>123</ele>
        <time>2014-02-02T11:28:47Z</time>
      </trkpt>
      <trkpt lat="50.59035" lon="4.44089">
        <ele>124</ele>
        <time>2014-02-02T11:28:55Z</time>
      </trkpt>
      <trkpt lat="50.59032" lon="4.44099">
        <ele>124</ele>
        <time>2014-02-02T11:29:02Z</time>
      </trkpt>
      <trkpt lat="50.5903" lon="4.44125">
        <ele>124</ele>
        <time>2014-02-02T11:29:14Z</time>
      </trkpt>
      <trkpt lat="50.59025" lon="4.44141">
        <ele>124</ele>
        <time>2014-02-02T11:29:24Z</time>
      </trkpt>
      <trkpt lat="50.59017" lon="4.44157">
        <ele>124</ele>
        <time>2014-02-02T11:29:35Z</time>
      </trkpt>
      <trkpt lat="50.59009" lon="4.4417">
        <ele>125</ele>
        <time>2014-02-02T11:29:46Z</time>
      </trkpt>
      <trkpt lat="50.59001" lon="4.44185">
        <ele>126</ele>
        <time>2014-02-02T11:29:57Z</time>
      </trkpt>
      <trkpt lat="50.59008" lon="4.44191">
        <ele>126</ele>
        <time>2014-02-02T11:30:09Z</time>
      </trkpt>
      <trkpt lat="50.59007" lon="4.44199">
        <ele>126</ele>
        <time>2014-02-02T11:30:20Z</time>
      </trkpt>
      <trkpt lat="50.59014" lon="4.4421">
        <ele>126</ele>
        <time>2014-02-02T11:30:30Z</time>
      </trkpt>
      <trkpt lat="50.59019" lon="4.44223">
        <ele>126</ele>
        <time>2014-02-02T11:30:43Z</time>
      </trkpt>
      <trkpt lat="50.59031" lon="4.44234">
        <ele>126</ele>
        <time>2014-02-02T11:30:53Z</time>
      </trkpt>
      <trkpt lat="50.59051" lon="4.44251">
        <ele>128</ele>
        <time>2014-02-02T11:31:08Z</time>
      </trkpt>
      <trkpt lat="50.5906" lon="4.44259">
        <ele>128</ele>
        <time>2014-02-02T11:31:16Z</time>
      </trkpt>
      <trkpt lat="50.59074" lon="4.44273">
        <ele>128</ele>
        <time>2014-02-02T11:31:26Z</time>
      </trkpt>
      <trkpt lat="50.59084" lon="4.44285">
        <ele>127</ele>
        <time>2014-02-02T11:31:37Z</time>
      </trkpt>
      <trkpt lat="50.59095" lon="4.44293">
        <ele>127</ele>
        <time>2014-02-02T11:31:48Z</time>
      </trkpt>
      <trkpt lat="50.59111" lon="4.4431">
        <ele>127</ele>
        <time>2014-02-02T11:31:59Z</time>
      </trkpt>
      <trkpt lat="50.59126" lon="4.44326">
        <ele>127</ele>
        <time>2014-02-02T11:32:10Z</time>
      </trkpt>
      <trkpt lat="50.59138" lon="4.44342">
        <ele>127</ele>
        <time>2014-02-02T11:32:22Z</time>
      </trkpt>
      <trkpt lat="50.59149" lon="4.44354">
        <ele>127</ele>
        <time>2014-02-02T11:32:33Z</time>
      </trkpt>
      <trkpt lat="50.59159" lon="4.44369">
        <ele>127</ele>
        <time>2014-02-02T11:32:44Z</time>
      </trkpt>
      <trkpt lat="50.59173" lon="4.4437">
        <ele>125</ele>
        <time>2014-02-02T11:32:55Z</time>
      </trkpt>
      <trkpt lat="50.59181" lon="4.44356">
        <ele>125</ele>
        <time>2014-02-02T11:33:06Z</time>
      </trkpt>
      <trkpt lat="50.5919" lon="4.44342">
        <ele>125</ele>
        <time>2014-02-02T11:33:17Z</time>
      </trkpt>
      <trkpt lat="50.59203" lon="4.44326">
        <ele>124</ele>
        <time>2014-02-02T11:33:33Z</time>
      </trkpt>
      <trkpt lat="50.5921" lon="4.44318">
        <ele>124</ele>
        <time>2014-02-02T11:33:39Z</time>
      </trkpt>
      <trkpt lat="50.59222" lon="4.44295">
        <ele>124</ele>
        <time>2014-02-02T11:33:58Z</time>
      </trkpt>
      <trkpt lat="50.59226" lon="4.44289">
        <ele>124</ele>
        <time>2014-02-02T11:34:02Z</time>
      </trkpt>
      <trkpt lat="50.59238" lon="4.44275">
        <ele>123</ele>
        <time>2014-02-02T11:34:12Z</time>
      </trkpt>
      <trkpt lat="50.59236" lon="4.44263">
        <ele>123</ele>
        <time>2014-02-02T11:34:23Z</time>
      </trkpt>
      <trkpt lat="50.59254" lon="4.44242">
        <ele>122</ele>
        <time>2014-02-02T11:34:43Z</time>
      </trkpt>
      <trkpt lat="50.59256" lon="4.4424">
        <ele>122</ele>
        <time>2014-02-02T11:34:46Z</time>
      </trkpt>
      <trkpt lat="50.59268" lon="4.44228">
        <ele>122</ele>
        <time>2014-02-02T11:34:56Z</time>
      </trkpt>
      <trkpt lat="50.59288" lon="4.44202">
        <ele>121</ele>
        <time>2014-02-02T11:35:16Z</time>
      </trkpt>
      <trkpt lat="50.59291" lon="4.442">
        <ele>121</ele>
        <time>2014-02-02T11:35:18Z</time>
      </trkpt>
      <trkpt lat="50.59297" lon="4.4419">
        <ele>121</ele>
        <time>2014-02-02T11:35:29Z</time>
      </trkpt>
      <trkpt lat="50.59302" lon="4.44179">
        <ele>121</ele>
        <time>2014-02-02T11:35:40Z</time>
      </trkpt>
      <trkpt lat="50.59312" lon="4.44174">
        <ele>121</ele>
        <time>2014-02-02T11:35:51Z</time>
      </trkpt>
      <trkpt lat="50.59318" lon="4.4418">
        <ele>121</ele>
        <time>2014-02-02T11:36:02Z</time>
      </trkpt>
      <trkpt lat="50.5932" lon="4.44194">
        <ele>121</ele>
        <time>2014-02-02T11:36:13Z</time>
      </trkpt>
      <trkpt lat="50.59344" lon="4.44202">
        <ele>120</ele>
        <time>2014-02-02T11:36:31Z</time>
      </trkpt>
      <trkpt lat="50.59349" lon="4.44206">
        <ele>120</ele>
        <time>2014-02-02T11:36:35Z</time>
      </trkpt>
      <trkpt lat="50.59376" lon="4.44222">
        <ele>119</ele>
        <time>2014-02-02T11:36:50Z</time>
      </trkpt>
      <trkpt lat="50.59385" lon="4.44224">
        <ele>119</ele>
        <time>2014-02-02T11:37:00Z</time>
      </trkpt>
      <trkpt lat="50.59396" lon="4.44228">
        <ele>119</ele>
        <time>2014-02-02T11:37:11Z</time>
      </trkpt>
      <trkpt lat="50.59405" lon="4.44238">
        <ele>119</ele>
        <time>2014-02-02T11:37:19Z</time>
      </trkpt>
      <trkpt lat="50.59419" lon="4.4425">
        <ele>119</ele>
        <time>2014-02-02T11:37:30Z</time>
      </trkpt>
      <trkpt lat="50.59437" lon="4.44278">
        <ele>118</ele>
        <time>2014-02-02T11:37:43Z</time>
      </trkpt>
      <trkpt lat="50.59447" lon="4.44289">
        <ele>118</ele>
        <time>2014-02-02T11:37:52Z</time>
      </trkpt>
      <trkpt lat="50.59459" lon="4.44308">
        <ele>118</ele>
        <time>2014-02-02T11:38:03Z</time>
      </trkpt>
      <trkpt lat="50.59474" lon="4.44323">
        <ele>117</ele>
        <time>2014-02-02T11:38:15Z</time>
      </trkpt>
      <trkpt lat="50.59486" lon="4.44333">
        <ele>117</ele>
        <time>2014-02-02T11:38:25Z</time>
      </trkpt>
      <trkpt lat="50.59497" lon="4.44349">
        <ele>117</ele>
        <time>2014-02-02T11:38:37Z</time>
      </trkpt>
      <trkpt lat="50.59509" lon="4.44363">
        <ele>115</ele>
        <time>2014-02-02T11:38:47Z</time>
      </trkpt>
      <trkpt lat="50.5952" lon="4.44371">
        <ele>115</ele>
        <time>2014-02-02T11:38:59Z</time>
      </trkpt>
      <trkpt lat="50.59531" lon="4.44383">
        <ele>115</ele>
        <time>2014-02-02T11:39:09Z</time>
      </trkpt>
      <trkpt lat="50.59543" lon="4.44392">
        <ele>115</ele>
        <time>2014-02-02T11:39:20Z</time>
      </trkpt>
      <trkpt lat="50.59553" lon="4.44403">
        <ele>114</ele>
        <time>2014-02-02T11:39:31Z</time>
      </trkpt>
      <trkpt lat="50.59564" lon="4.44421">
        <ele>114</ele>
        <time>2014-02-02T11:39:44Z</time>
      </trkpt>
      <trkpt lat="50.59573" lon="4.44431">
        <ele>114</ele>
        <time>2014-02-02T11:39:54Z</time>
      </trkpt>
      <trkpt lat="50.59589" lon="4.44446">
        <ele>112</ele>
        <time>2014-02-02T11:40:07Z</time>
      </trkpt>
      <trkpt lat="50.59596" lon="4.44455">
        <ele>112</ele>
        <time>2014-02-02T11:40:16Z</time>
      </trkpt>
      <trkpt lat="50.59605" lon="4.44464">
        <ele>112</ele>
        <time>2014-02-02T11:40:26Z</time>
      </trkpt>
      <trkpt lat="50.59615" lon="4.44476">
        <ele>112</ele>
        <time>2014-02-02T11:40:37Z</time>
      </trkpt>
      <trkpt lat="50.59622" lon="4.44501">
        <ele>112</ele>
        <time>2014-02-02T11:40:56Z</time>
      </trkpt>
      <trkpt lat="50.59629" lon="4.4451">
        <ele>112</ele>
        <time>2014-02-02T11:41:02Z</time>
      </trkpt>
      <trkpt lat="50.59642" lon="4.44515">
        <ele>112</ele>
        <time>2014-02-02T11:41:10Z</time>
      </trkpt>
      <trkpt lat="50.59652" lon="4.44527">
        <ele>112</ele>
        <time>2014-02-02T11:41:23Z</time>
      </trkpt>
      <trkpt lat="50.59662" lon="4.44536">
        <ele>112</ele>
        <time>2014-02-02T11:41:32Z</time>
      </trkpt>
      <trkpt lat="50.59674" lon="4.44539">
        <ele>111</ele>
        <time>2014-02-02T11:41:43Z</time>
      </trkpt>
      <trkpt lat="50.59688" lon="4.44549">
        <ele>112</ele>
        <time>2014-02-02T11:41:54Z</time>
      </trkpt>
      <trkpt lat="50.597" lon="4.4456">
        <ele>112</ele>
        <time>2014-02-02T11:42:05Z</time>
      </trkpt>
      <trkpt lat="50.59708" lon="4.44576">
        <ele>112</ele>
        <time>2014-02-02T11:42:17Z</time>
      </trkpt>
      <trkpt lat="50.59728" lon="4.44597">
        <ele>113</ele>
        <time>2014-02-02T11:42:35Z</time>
      </trkpt>
      <trkpt lat="50.59732" lon="4.44599">
        <ele>113</ele>
        <time>2014-02-02T11:42:38Z</time>
      </trkpt>
      <trkpt lat="50.59736" lon="4.44616">
        <ele>113</ele>
        <time>2014-02-02T11:42:49Z</time>
      </trkpt>
      <trkpt lat="50.59744" lon="4.44634">
        <ele>113</ele>
        <time>2014-02-02T11:43:01Z</time>
      </trkpt>
      <trkpt lat="50.59748" lon="4.4465">
        <ele>113</ele>
        <time>2014-02-02T11:43:11Z</time>
      </trkpt>
      <trkpt lat="50.59758" lon="4.44665">
        <ele>114</ele>
        <time>2014-02-02T11:43:22Z</time>
      </trkpt>
      <trkpt lat="50.59767" lon="4.44682">
        <ele>115</ele>
        <time>2014-02-02T11:43:33Z</time>
      </trkpt>
      <trkpt lat="50.59777" lon="4.44695">
        <ele>115</ele>
        <time>2014-02-02T11:43:44Z</time>
      </trkpt>
      <trkpt lat="50.5979" lon="4.44705">
        <ele>116</ele>
        <time>2014-02-02T11:43:55Z</time>
      </trkpt>
      <trkpt lat="50.59802" lon="4.44714">
        <ele>116</ele>
        <time>2014-02-02T11:44:07Z</time>
      </trkpt>
      <trkpt lat="50.59815" lon="4.44726">
        <ele>116</ele>
        <time>2014-02-02T11:44:17Z</time>
      </trkpt>
      <trkpt lat="50.59825" lon="4.44742">
        <ele>117</ele>
        <time>2014-02-02T11:44:28Z</time>
      </trkpt>
      <trkpt lat="50.59837" lon="4.44749">
        <ele>117</ele>
        <time>2014-02-02T11:44:39Z</time>
      </trkpt>
      <trkpt lat="50.59846" lon="4.44767">
        <ele>118</ele>
        <time>2014-02-02T11:44:50Z</time>
      </trkpt>
      <trkpt lat="50.59857" lon="4.44781">
        <ele>118</ele>
        <time>2014-02-02T11:45:01Z</time>
      </trkpt>
      <trkpt lat="50.5987" lon="4.44784">
        <ele>118</ele>
        <time>2014-02-02T11:45:12Z</time>
      </trkpt>
      <trkpt lat="50.59882" lon="4.44797">
        <ele>118</ele>
        <time>2014-02-02T11:45:23Z</time>
      </trkpt>
      <trkpt lat="50.59891" lon="4.44816">
        <ele>119</ele>
        <time>2014-02-02T11:45:34Z</time>
      </trkpt>
      <trkpt lat="50.59903" lon="4.44828">
        <ele>120</ele>
        <time>2014-02-02T11:45:45Z</time>
      </trkpt>
      <trkpt lat="50.59911" lon="4.44843">
        <ele>120</ele>
        <time>2014-02-02T11:45:56Z</time>
      </trkpt>
      <trkpt lat="50.59923" lon="4.44853">
        <ele>121</ele>
        <time>2014-02-02T11:46:08Z</time>
      </trkpt>
      <trkpt lat="50.59931" lon="4.44867">
        <ele>121</ele>
        <time>2014-02-02T11:46:18Z</time>
      </trkpt>
      <trkpt lat="50.59942" lon="4.4488">
        <ele>121</ele>
        <time>2014-02-02T11:46:29Z</time>
      </trkpt>
      <trkpt lat="50.59952" lon="4.44893">
        <ele>121</ele>
        <time>2014-02-02T11:46:40Z</time>
      </trkpt>
      <trkpt lat="50.59962" lon="4.44905">
        <ele>121</ele>
        <time>2014-02-02T11:46:51Z</time>
      </trkpt>
      <trkpt lat="50.59972" lon="4.44917">
        <ele>120</ele>
        <time>2014-02-02T11:47:02Z</time>
      </trkpt>
      <trkpt lat="50.59981" lon="4.44932">
        <ele>120</ele>
        <time>2014-02-02T11:47:13Z</time>
      </trkpt>
      <trkpt lat="50.59992" lon="4.44943">
        <ele>120</ele>
        <time>2014-02-02T11:47:24Z</time>
      </trkpt>
      <trkpt lat="50.60006" lon="4.44961">
        <ele>119</ele>
        <time>2014-02-02T11:47:35Z</time>
      </trkpt>
      <trkpt lat="50.60016" lon="4.44976">
        <ele>119</ele>
        <time>2014-02-02T11:47:46Z</time>
      </trkpt>
      <trkpt lat="50.60029" lon="4.44995">
        <ele>119</ele>
        <time>2014-02-02T11:47:57Z</time>
      </trkpt>
      <trkpt lat="50.60042" lon="4.4501">
        <ele>119</ele>
        <time>2014-02-02T11:48:08Z</time>
      </trkpt>
      <trkpt lat="50.60052" lon="4.4502">
        <ele>119</ele>
        <time>2014-02-02T11:48:19Z</time>
      </trkpt>
      <trkpt lat="50.60063" lon="4.45034">
        <ele>119</ele>
        <time>2014-02-02T11:48:30Z</time>
      </trkpt>
      <trkpt lat="50.60072" lon="4.45047">
        <ele>119</ele>
        <time>2014-02-02T11:48:41Z</time>
      </trkpt>
      <trkpt lat="50.60082" lon="4.45059">
        <ele>119</ele>
        <time>2014-02-02T11:48:52Z</time>
      </trkpt>
      <trkpt lat="50.60091" lon="4.45074">
        <ele>119</ele>
        <time>2014-02-02T11:49:03Z</time>
      </trkpt>
      <trkpt lat="50.60099" lon="4.45083">
        <ele>120</ele>
        <time>2014-02-02T11:49:14Z</time>
      </trkpt>
      <trkpt lat="50.60107" lon="4.45092">
        <ele>120</ele>
        <time>2014-02-02T11:49:25Z</time>
      </trkpt>
      <trkpt lat="50.60119" lon="4.45107">
        <ele>121</ele>
        <time>2014-02-02T11:49:37Z</time>
      </trkpt>
      <trkpt lat="50.60127" lon="4.45116">
        <ele>121</ele>
        <time>2014-02-02T11:49:47Z</time>
      </trkpt>
      <trkpt lat="50.60136" lon="4.45122">
        <ele>121</ele>
        <time>2014-02-02T11:49:58Z</time>
      </trkpt>
      <trkpt lat="50.60146" lon="4.4514">
        <ele>122</ele>
        <time>2014-02-02T11:50:09Z</time>
      </trkpt>
      <trkpt lat="50.60157" lon="4.45163">
        <ele>123</ele>
        <time>2014-02-02T11:50:22Z</time>
      </trkpt>
      <trkpt lat="50.60172" lon="4.45201">
        <ele>123</ele>
        <time>2014-02-02T11:50:40Z</time>
      </trkpt>
      <trkpt lat="50.60184" lon="4.45213">
        <ele>123</ele>
        <time>2014-02-02T11:50:47Z</time>
      </trkpt>
      <trkpt lat="50.60193" lon="4.45219">
        <ele>123</ele>
        <time>2014-02-02T11:50:53Z</time>
      </trkpt>
      <trkpt lat="50.60206" lon="4.45229">
        <ele>123</ele>
        <time>2014-02-02T11:51:05Z</time>
      </trkpt>
      <trkpt lat="50.60217" lon="4.4524">
        <ele>123</ele>
        <time>2014-02-02T11:51:15Z</time>
      </trkpt>
      <trkpt lat="50.60231" lon="4.45255">
        <ele>123</ele>
        <time>2014-02-02T11:51:27Z</time>
      </trkpt>
      <trkpt lat="50.60241" lon="4.45268">
        <ele>123</ele>
        <time>2014-02-02T11:51:37Z</time>
      </trkpt>
      <trkpt lat="50.60252" lon="4.45287">
        <ele>122</ele>
        <time>2014-02-02T11:51:48Z</time>
      </trkpt>
      <trkpt lat="50.60269" lon="4.45305">
        <ele>122</ele>
        <time>2014-02-02T11:52:03Z</time>
      </trkpt>
      <trkpt lat="50.60278" lon="4.45305">
        <ele>122</ele>
        <time>2014-02-02T11:52:10Z</time>
      </trkpt>
      <trkpt lat="50.60293" lon="4.45302">
        <ele>122</ele>
        <time>2014-02-02T11:52:22Z</time>
      </trkpt>
      <trkpt lat="50.60303" lon="4.45297">
        <ele>122</ele>
        <time>2014-02-02T11:52:33Z</time>
      </trkpt>
      <trkpt lat="50.60314" lon="4.45287">
        <ele>121</ele>
        <time>2014-02-02T11:52:44Z</time>
      </trkpt>
      <trkpt lat="50.60327" lon="4.4528">
        <ele>121</ele>
        <time>2014-02-02T11:52:55Z</time>
      </trkpt>
      <trkpt lat="50.60345" lon="4.45279">
        <ele>120</ele>
        <time>2014-02-02T11:53:06Z</time>
      </trkpt>
      <trkpt lat="50.60361" lon="4.45276">
        <ele>120</ele>
        <time>2014-02-02T11:53:17Z</time>
      </trkpt>
      <trkpt lat="50.60375" lon="4.45271">
        <ele>120</ele>
        <time>2014-02-02T11:53:28Z</time>
      </trkpt>
      <trkpt lat="50.60388" lon="4.45264">
        <ele>119</ele>
        <time>2014-02-02T11:53:39Z</time>
      </trkpt>
      <trkpt lat="50.60403" lon="4.45257">
        <ele>119</ele>
        <time>2014-02-02T11:53:51Z</time>
      </trkpt>
      <trkpt lat="50.60413" lon="4.45244">
        <ele>118</ele>
        <time>2014-02-02T11:54:04Z</time>
      </trkpt>
      <trkpt lat="50.60433" lon="4.45237">
        <ele>118</ele>
        <time>2014-02-02T11:54:19Z</time>
      </trkpt>
      <trkpt lat="50.60452" lon="4.45231">
        <ele>118</ele>
        <time>2014-02-02T11:54:32Z</time>
      </trkpt>
      <trkpt lat="50.60459" lon="4.45228">
        <ele>118</ele>
        <time>2014-02-02T11:54:37Z</time>
      </trkpt>
      <trkpt lat="50.60471" lon="4.45223">
        <ele>118</ele>
        <time>2014-02-02T11:54:45Z</time>
      </trkpt>
      <trkpt lat="50.60485" lon="4.45218">
        <ele>118</ele>
        <time>2014-02-02T11:54:56Z</time>
      </trkpt>
      <trkpt lat="50.605" lon="4.45213">
        <ele>118</ele>
        <time>2014-02-02T11:55:07Z</time>
      </trkpt>
      <trkpt lat="50.60519" lon="4.45205">
        <ele>117</ele>
        <time>2014-02-02T11:55:19Z</time>
      </trkpt>
      <trkpt lat="50.60534" lon="4.45198">
        <ele>117</ele>
        <time>2014-02-02T11:55:29Z</time>
      </trkpt>
      <trkpt lat="50.60548" lon="4.45191">
        <ele>117</ele>
        <time>2014-02-02T11:55:40Z</time>
      </trkpt>
      <trkpt lat="50.6056" lon="4.45186">
        <ele>116</ele>
        <time>2014-02-02T11:55:51Z</time>
      </trkpt>
      <trkpt lat="50.60575" lon="4.45179">
        <ele>116</ele>
        <time>2014-02-02T11:56:07Z</time>
      </trkpt>
      <trkpt lat="50.60581" lon="4.45175">
        <ele>115</ele>
        <time>2014-02-02T11:56:13Z</time>
      </trkpt>
      <trkpt lat="50.60593" lon="4.45169">
        <ele>115</ele>
        <time>2014-02-02T11:56:24Z</time>
      </trkpt>
      <trkpt lat="50.6061" lon="4.45159">
        <ele>113</ele>
        <time>2014-02-02T11:56:35Z</time>
      </trkpt>
      <trkpt lat="50.60626" lon="4.4515">
        <ele>112</ele>
        <time>2014-02-02T11:56:46Z</time>
      </trkpt>
      <trkpt lat="50.6064" lon="4.45146">
        <ele>112</ele>
        <time>2014-02-02T11:56:57Z</time>
      </trkpt>
      <trkpt lat="50.60648" lon="4.45136">
        <ele>112</ele>
        <time>2014-02-02T11:57:08Z</time>
      </trkpt>
      <trkpt lat="50.60663" lon="4.45128">
        <ele>111</ele>
        <time>2014-02-02T11:57:19Z</time>
      </trkpt>
      <trkpt lat="50.60675" lon="4.45119">
        <ele>109</ele>
        <time>2014-02-02T11:57:30Z</time>
      </trkpt>
      <trkpt lat="50.60691" lon="4.45112">
        <ele>109</ele>
        <time>2014-02-02T11:57:42Z</time>
      </trkpt>
      <trkpt lat="50.60705" lon="4.45106">
        <ele>109</ele>
        <time>2014-02-02T11:57:52Z</time>
      </trkpt>
      <trkpt lat="50.6072" lon="4.45102">
        <ele>109</ele>
        <time>2014-02-02T11:58:03Z</time>
      </trkpt>
      <trkpt lat="50.60738" lon="4.45098">
        <ele>108</ele>
        <time>2014-02-02T11:58:15Z</time>
      </trkpt>
      <trkpt lat="50.60747" lon="4.45089">
        <ele>108</ele>
        <time>2014-02-02T11:58:25Z</time>
      </trkpt>
      <trkpt lat="50.60759" lon="4.4508">
        <ele>107</ele>
        <time>2014-02-02T11:58:37Z</time>
      </trkpt>
      <trkpt lat="50.6077" lon="4.45074">
        <ele>106</ele>
        <time>2014-02-02T11:58:47Z</time>
      </trkpt>
      <trkpt lat="50.6078" lon="4.45069">
        <ele>106</ele>
        <time>2014-02-02T11:58:58Z</time>
      </trkpt>
      <trkpt lat="50.60789" lon="4.45062">
        <ele>106</ele>
        <time>2014-02-02T11:59:09Z</time>
      </trkpt>
      <trkpt lat="50.60816" lon="4.45054">
        <ele>106</ele>
        <time>2014-02-02T11:59:30Z</time>
      </trkpt>
      <trkpt lat="50.60817" lon="4.45053">
        <ele>106</ele>
        <time>2014-02-02T11:59:31Z</time>
      </trkpt>
      <trkpt lat="50.60831" lon="4.45043">
        <ele>106</ele>
        <time>2014-02-02T11:59:44Z</time>
      </trkpt>
      <trkpt lat="50.60855" lon="4.45039">
        <ele>106</ele>
        <time>2014-02-02T12:00:02Z</time>
      </trkpt>
      <trkpt lat="50.60865" lon="4.45036">
        <ele>106</ele>
        <time>2014-02-02T12:00:11Z</time>
      </trkpt>
      <trkpt lat="50.6087" lon="4.45032">
        <ele>106</ele>
        <time>2014-02-02T12:00:15Z</time>
      </trkpt>
      <trkpt lat="50.60884" lon="4.45035">
        <ele>106</ele>
        <time>2014-02-02T12:00:26Z</time>
      </trkpt>
      <trkpt lat="50.60893" lon="4.45036">
        <ele>106</ele>
        <time>2014-02-02T12:00:37Z</time>
      </trkpt>
      <trkpt lat="50.60902" lon="4.45037">
        <ele>106</ele>
        <time>2014-02-02T12:00:48Z</time>
      </trkpt>
      <trkpt lat="50.60914" lon="4.45039">
        <ele>106</ele>
        <time>2014-02-02T12:01:01Z</time>
      </trkpt>
      <trkpt lat="50.60926" lon="4.45038">
        <ele>107</ele>
        <time>2014-02-02T12:01:10Z</time>
      </trkpt>
      <trkpt lat="50.60938" lon="4.4505">
        <ele>107</ele>
        <time>2014-02-02T12:01:22Z</time>
      </trkpt>
      <trkpt lat="50.6095" lon="4.45073">
        <ele>107</ele>
        <time>2014-02-02T12:01:42Z</time>
      </trkpt>
      <trkpt lat="50.60952" lon="4.45073">
        <ele>107</ele>
        <time>2014-02-02T12:01:43Z</time>
      </trkpt>
      <trkpt lat="50.60968" lon="4.45073">
        <ele>107</ele>
        <time>2014-02-02T12:01:54Z</time>
      </trkpt>
      <trkpt lat="50.60979" lon="4.45075">
        <ele>107</ele>
        <time>2014-02-02T12:02:06Z</time>
      </trkpt>
      <trkpt lat="50.60983" lon="4.45073">
        <ele>107</ele>
        <time>2014-02-02T12:02:16Z</time>
      </trkpt>
      <trkpt lat="50.61008" lon="4.45064">
        <ele>108</ele>
        <time>2014-02-02T12:02:37Z</time>
      </trkpt>
      <trkpt lat="50.61018" lon="4.45058">
        <ele>109</ele>
        <time>2014-02-02T12:02:48Z</time>
      </trkpt>
      <trkpt lat="50.61023" lon="4.45053">
        <ele>109</ele>
        <time>2014-02-02T12:02:52Z</time>
      </trkpt>
      <trkpt lat="50.61038" lon="4.45057">
        <ele>109</ele>
        <time>2014-02-02T12:03:04Z</time>
      </trkpt>
      <trkpt lat="50.61043" lon="4.45061">
        <ele>109</ele>
        <time>2014-02-02T12:03:12Z</time>
      </trkpt>
      <trkpt lat="50.61067" lon="4.45058">
        <ele>109</ele>
        <time>2014-02-02T12:03:28Z</time>
      </trkpt>
      <trkpt lat="50.61078" lon="4.45062">
        <ele>109</ele>
        <time>2014-02-02T12:03:34Z</time>
      </trkpt>
      <trkpt lat="50.61093" lon="4.45068">
        <ele>109</ele>
        <time>2014-02-02T12:03:46Z</time>
      </trkpt>
      <trkpt lat="50.61102" lon="4.45071">
        <ele>109</ele>
        <time>2014-02-02T12:03:56Z</time>
      </trkpt>
      <trkpt lat="50.61115" lon="4.45079">
        <ele>109</ele>
        <time>2014-02-02T12:04:07Z</time>
      </trkpt>
      <trkpt lat="50.6113" lon="4.45089">
        <ele>110</ele>
        <time>2014-02-02T12:04:18Z</time>
      </trkpt>
      <trkpt lat="50.6114" lon="4.45097">
        <ele>110</ele>
        <time>2014-02-02T12:04:29Z</time>
      </trkpt>
      <trkpt lat="50.61163" lon="4.45106">
        <ele>110</ele>
        <time>2014-02-02T12:04:47Z</time>
      </trkpt>
      <trkpt lat="50.61169" lon="4.45109">
        <ele>111</ele>
        <time>2014-02-02T12:04:55Z</time>
      </trkpt>
      <trkpt lat="50.61178" lon="4.4511">
        <ele>111</ele>
        <time>2014-02-02T12:05:02Z</time>
      </trkpt>
      <trkpt lat="50.61188" lon="4.45117">
        <ele>111</ele>
        <time>2014-02-02T12:05:13Z</time>
      </trkpt>
      <trkpt lat="50.61194" lon="4.45146">
        <ele>111</ele>
        <time>2014-02-02T12:05:27Z</time>
      </trkpt>
      <trkpt lat="50.61199" lon="4.4516">
        <ele>111</ele>
        <time>2014-02-02T12:05:41Z</time>
      </trkpt>
      <trkpt lat="50.61199" lon="4.45163">
        <ele>111</ele>
        <time>2014-02-02T12:05:48Z</time>
      </trkpt>
    </trkseg>
  </trk>
</gpx>